Terminal Aerodrome Forecast
Issued by NWS

Home | Current Version | Previous Version | Text Only | Print | Product List | Glossary On
Versions: 1 2 3 4 5 6 7 8 9 10 11 12 13 14 15 16 17 18 19 20 21 22 23 24 25 26 27 28 29 30 31 32 33 34 35 36
664
FTUS46 KLOX 241732
TAFLAX
TAF
KLAX 241732Z 2418/2524 25006KT P6SM FEW018 SCT110 BKN150
     FM242000 26010KT P6SM SCT018 BKN120
     FM250300 VRB05KT P6SM BKN120
     FM250700 VRB03KT P6SM OVC009
     FM251600 26010KT P6SM SCT012=

USA.gov is the U.S. government's official web portal to all federal, state and local government web resources and services.